sensor_id;sensor_type;location;lat;lon;timestamp;P1;durP1;ratioP1;P2;durP2;ratioP2
73678;SDS011;61978;52.742;16.962;2023-04-24T00:01:48;31.00;;;22.40;;
73678;SDS011;61978;52.742;16.962;2023-04-24T00:04:14;26.90;;;19.40;;
73678;SDS011;61978;52.742;16.962;2023-04-24T00:06:42;29.30;;;18.60;;
73678;SDS011;61978;52.742;16.962;2023-04-24T00:09:09;31.60;;;20.10;;
73678;SDS011;61978;52.742;16.962;2023-04-24T00:11:35;26.80;;;19.40;;
73678;SDS011;61978;52.742;16.962;2023-04-24T00:14:01;22.50;;;17.00;;
73678;SDS011;61978;52.742;16.962;2023-04-24T00:16:28;22.20;;;16.00;;
73678;SDS011;61978;52.742;16.962;2023-04-24T00:18:54;20.00;;;15.10;;
73678;SDS011;61978;52.742;16.962;2023-04-24T00:21:21;15.90;;;13.50;;
73678;SDS011;61978;52.742;16.962;2023-04-24T00:23:51;21.40;;;14.90;;
73678;SDS011;61978;52.742;16.962;2023-04-24T00:26:17;17.40;;;13.80;;
73678;SDS011;61978;52.742;16.962;2023-04-24T00:28:44;17.20;;;13.90;;
73678;SDS011;61978;52.742;16.962;2023-04-24T00:31:10;22.70;;;16.00;;
73678;SDS011;61978;52.742;16.962;2023-04-24T00:33:36;16.40;;;13.80;;
73678;SDS011;61978;52.742;16.962;2023-04-24T00:36:03;16.90;;;13.20;;
73678;SDS011;61978;52.742;16.962;2023-04-24T00:38:29;16.70;;;13.30;;
73678;SDS011;61978;52.742;16.962;2023-04-24T00:40:55;15.80;;;12.80;;
73678;SDS011;61978;52.742;16.962;2023-04-24T00:43:21;18.00;;;13.90;;
73678;SDS011;61978;52.742;16.962;2023-04-24T00:45:47;18.80;;;14.10;;
73678;SDS011;61978;52.742;16.962;2023-04-24T00:48:12;17.80;;;14.90;;
73678;SDS011;61978;52.742;16.962;2023-04-24T00:50:39;15.80;;;13.50;;
73678;SDS011;61978;52.742;16.962;2023-04-24T00:53:05;18.30;;;15.20;;
73678;SDS011;61978;52.742;16.962;2023-04-24T00:55:31;19.20;;;15.40;;
73678;SDS011;61978;52.742;16.962;2023-04-24T00:57:58;17.60;;;13.90;;
73678;SDS011;61978;52.742;16.962;2023-04-24T01:00:24;17.90;;;14.20;;
73678;SDS011;61978;52.742;16.962;2023-04-24T01:02:49;15.90;;;14.20;;
73678;SDS011;61978;52.742;16.962;2023-04-24T01:05:17;17.50;;;14.00;;
73678;SDS011;61978;52.742;16.962;2023-04-24T01:07:43;21.30;;;14.80;;
73678;SDS011;61978;52.742;16.962;2023-04-24T01:10:11;19.50;;;15.50;;
73678;SDS011;61978;52.742;16.962;2023-04-24T01:12:38;20.70;;;14.90;;
73678;SDS011;61978;52.742;16.962;2023-04-24T01:15:04;19.50;;;14.80;;
73678;SDS011;61978;52.742;16.962;2023-04-24T01:17:32;17.60;;;15.20;;
73678;SDS011;61978;52.742;16.962;2023-04-24T01:19:58;20.50;;;16.60;;
73678;SDS011;61978;52.742;16.962;2023-04-24T01:22:25;20.90;;;17.70;;
73678;SDS011;61978;52.742;16.962;2023-04-24T01:24:51;20.50;;;15.50;;
73678;SDS011;61978;52.742;16.962;2023-04-24T01:27:17;26.10;;;18.70;;
73678;SDS011;61978;52.742;16.962;2023-04-24T01:29:44;22.80;;;14.40;;
73678;SDS011;61978;52.742;16.962;2023-04-24T01:32:10;25.00;;;16.60;;
73678;SDS011;61978;52.742;16.962;2023-04-24T01:34:36;27.10;;;19.60;;
73678;SDS011;61978;52.742;16.962;2023-04-24T01:37:02;27.30;;;18.70;;
73678;SDS011;61978;52.742;16.962;2023-04-24T01:39:29;18.20;;;15.30;;
73678;SDS011;61978;52.742;16.962;2023-04-24T01:41:55;17.10;;;14.10;;
73678;SDS011;61978;52.742;16.962;2023-04-24T01:44:22;15.90;;;14.00;;
73678;SDS011;61978;52.742;16.962;2023-04-24T01:46:48;20.00;;;14.70;;
73678;SDS011;61978;52.742;16.962;2023-04-24T01:49:13;17.40;;;14.60;;
73678;SDS011;61978;52.742;16.962;2023-04-24T01:51:39;20.50;;;15.90;;
73678;SDS011;61978;52.742;16.962;2023-04-24T01:54:05;19.90;;;15.90;;
73678;SDS011;61978;52.742;16.962;2023-04-24T01:56:33;22.20;;;15.50;;
73678;SDS011;61978;52.742;16.962;2023-04-24T01:59:00;20.00;;;15.70;;
73678;SDS011;61978;52.742;16.962;2023-04-24T02:01:27;19.60;;;15.70;;
73678;SDS011;61978;52.742;16.962;2023-04-24T02:03:53;18.10;;;15.40;;
73678;SDS011;61978;52.742;16.962;2023-04-24T02:06:18;19.30;;;15.80;;
73678;SDS011;61978;52.742;16.962;2023-04-24T02:08:46;16.50;;;14.70;;
73678;SDS011;61978;52.742;16.962;2023-04-24T02:11:12;19.50;;;15.80;;
73678;SDS011;61978;52.742;16.962;2023-04-24T02:13:38;25.80;;;17.40;;
73678;SDS011;61978;52.742;16.962;2023-04-24T02:16:05;20.10;;;17.70;;
73678;SDS011;61978;52.742;16.962;2023-04-24T02:18:31;25.20;;;18.50;;
73678;SDS011;61978;52.742;16.962;2023-04-24T02:20:57;22.10;;;19.10;;
73678;SDS011;61978;52.742;16.962;2023-04-24T02:23:23;25.00;;;19.60;;
73678;SDS011;61978;52.742;16.962;2023-04-24T02:25:49;24.20;;;19.80;;
73678;SDS011;61978;52.742;16.962;2023-04-24T02:28:16;25.50;;;20.10;;
73678;SDS011;61978;52.742;16.962;2023-04-24T02:30:42;27.30;;;21.70;;
73678;SDS011;61978;52.742;16.962;2023-04-24T02:33:08;24.90;;;20.60;;
73678;SDS011;61978;52.742;16.962;2023-04-24T02:35:35;26.60;;;20.70;;
73678;SDS011;61978;52.742;16.962;2023-04-24T02:38:01;25.30;;;21.10;;
73678;SDS011;61978;52.742;16.962;2023-04-24T02:40:29;25.30;;;20.90;;
73678;SDS011;61978;52.742;16.962;2023-04-24T02:42:56;29.40;;;23.10;;
73678;SDS011;61978;52.742;16.962;2023-04-24T02:45:23;28.80;;;22.40;;
73678;SDS011;61978;52.742;16.962;2023-04-24T02:47:48;25.90;;;22.80;;
73678;SDS011;61978;52.742;16.962;2023-04-24T02:50:14;32.00;;;23.60;;
73678;SDS011;61978;52.742;16.962;2023-04-24T02:52:40;28.20;;;22.60;;
73678;SDS011;61978;52.742;16.962;2023-04-24T02:55:06;27.10;;;22.40;;
73678;SDS011;61978;52.742;16.962;2023-04-24T02:57:33;36.70;;;24.50;;
73678;SDS011;61978;52.742;16.962;2023-04-24T02:59:59;36.20;;;25.60;;
73678;SDS011;61978;52.742;16.962;2023-04-24T03:02:25;33.10;;;25.10;;
73678;SDS011;61978;52.742;16.962;2023-04-24T03:04:51;36.70;;;25.30;;
73678;SDS011;61978;52.742;16.962;2023-04-24T03:07:16;32.60;;;24.80;;
73678;SDS011;61978;52.742;16.962;2023-04-24T03:09:42;36.70;;;23.90;;
73678;SDS011;61978;52.742;16.962;2023-04-24T03:12:08;35.80;;;26.00;;
73678;SDS011;61978;52.742;16.962;2023-04-24T03:14:34;30.70;;;25.10;;
73678;SDS011;61978;52.742;16.962;2023-04-24T03:17:00;31.90;;;23.00;;
73678;SDS011;61978;52.742;16.962;2023-04-24T03:19:27;30.30;;;22.00;;
73678;SDS011;61978;52.742;16.962;2023-04-24T03:21:58;26.00;;;21.30;;
73678;SDS011;61978;52.742;16.962;2023-04-24T03:24:24;26.80;;;20.40;;
73678;SDS011;61978;52.742;16.962;2023-04-24T03:26:50;26.80;;;20.60;;
73678;SDS011;61978;52.742;16.962;2023-04-24T03:29:28;24.50;;;21.40;;
73678;SDS011;61978;52.742;16.962;2023-04-24T03:31:54;26.50;;;19.50;;
73678;SDS011;61978;52.742;16.962;2023-04-24T03:34:23;18.40;;;14.20;;
73678;SDS011;61978;52.742;16.962;2023-04-24T03:36:51;18.80;;;13.40;;
73678;SDS011;61978;52.742;16.962;2023-04-24T03:39:19;16.50;;;12.20;;
73678;SDS011;61978;52.742;16.962;2023-04-24T03:41:52;17.00;;;15.00;;
73678;SDS011;61978;52.742;16.962;2023-04-24T03:44:22;20.00;;;17.60;;
73678;SDS011;61978;52.742;16.962;2023-04-24T03:46:49;21.20;;;18.20;;
73678;SDS011;61978;52.742;16.962;2023-04-24T03:49:16;23.40;;;18.60;;
73678;SDS011;61978;52.742;16.962;2023-04-24T03:51:42;22.10;;;18.50;;
73678;SDS011;61978;52.742;16.962;2023-04-24T03:56:52;27.90;;;19.00;;
73678;SDS011;61978;52.742;16.962;2023-04-24T03:59:19;28.20;;;20.60;;
73678;SDS011;61978;52.742;16.962;2023-04-24T04:01:48;25.40;;;21.30;;
73678;SDS011;61978;52.742;16.962;2023-04-24T04:04:15;29.80;;;20.90;;
73678;SDS011;61978;52.742;16.962;2023-04-24T04:06:41;25.00;;;19.80;;
73678;SDS011;61978;52.742;16.962;2023-04-24T04:09:08;24.10;;;19.50;;
73678;SDS011;61978;52.742;16.962;2023-04-24T04:11:34;24.50;;;21.00;;
73678;SDS011;61978;52.742;16.962;2023-04-24T04:14:01;26.20;;;20.70;;
73678;SDS011;61978;52.742;16.962;2023-04-24T04:16:26;24.60;;;20.00;;
73678;SDS011;61978;52.742;16.962;2023-04-24T04:18:57;21.70;;;18.90;;
73678;SDS011;61978;52.742;16.962;2023-04-24T04:21:22;27.00;;;19.50;;
73678;SDS011;61978;52.742;16.962;2023-04-24T04:23:50;24.50;;;18.70;;
73678;SDS011;61978;52.742;16.962;2023-04-24T04:26:19;23.20;;;18.80;;
73678;SDS011;61978;52.742;16.962;2023-04-24T04:28:58;21.00;;;18.00;;
73678;SDS011;61978;52.742;16.962;2023-04-24T04:31:26;20.40;;;16.20;;
73678;SDS011;61978;52.742;16.962;2023-04-24T04:33:52;21.50;;;17.20;;
73678;SDS011;61978;52.742;16.962;2023-04-24T04:36:18;22.10;;;17.30;;
73678;SDS011;61978;52.742;16.962;2023-04-24T04:38:48;21.90;;;16.80;;
73678;SDS011;61978;52.742;16.962;2023-04-24T04:41:39;19.60;;;15.40;;
73678;SDS011;61978;52.742;16.962;2023-04-24T04:44:06;20.10;;;16.50;;
73678;SDS011;61978;52.742;16.962;2023-04-24T04:46:34;21.60;;;17.60;;
73678;SDS011;61978;52.742;16.962;2023-04-24T04:49:20;25.40;;;18.20;;
73678;SDS011;61978;52.742;16.962;2023-04-24T04:51:47;23.80;;;18.60;;
73678;SDS011;61978;52.742;16.962;2023-04-24T04:54:14;23.90;;;18.70;;
73678;SDS011;61978;52.742;16.962;2023-04-24T04:56:42;23.90;;;18.70;;
73678;SDS011;61978;52.742;16.962;2023-04-24T04:59:08;23.60;;;20.20;;
73678;SDS011;61978;52.742;16.962;2023-04-24T05:01:35;27.00;;;19.90;;
73678;SDS011;61978;52.742;16.962;2023-04-24T05:04:01;28.70;;;21.10;;
73678;SDS011;61978;52.742;16.962;2023-04-24T05:06:26;26.20;;;20.70;;
73678;SDS011;61978;52.742;16.962;2023-04-24T05:08:53;27.90;;;21.00;;
73678;SDS011;61978;52.742;16.962;2023-04-24T05:11:31;27.00;;;20.10;;
73678;SDS011;61978;52.742;16.962;2023-04-24T05:13:56;27.90;;;20.20;;
73678;SDS011;61978;52.742;16.962;2023-04-24T05:16:30;22.60;;;18.40;;
73678;SDS011;61978;52.742;16.962;2023-04-24T05:18:56;25.00;;;17.30;;
73678;SDS011;61978;52.742;16.962;2023-04-24T05:21:26;29.20;;;20.10;;
73678;SDS011;61978;52.742;16.962;2023-04-24T05:23:53;24.10;;;19.40;;
73678;SDS011;61978;52.742;16.962;2023-04-24T05:26:42;25.60;;;19.40;;
73678;SDS011;61978;52.742;16.962;2023-04-24T05:29:08;25.00;;;18.30;;
73678;SDS011;61978;52.742;16.962;2023-04-24T05:31:33;23.10;;;17.00;;
73678;SDS011;61978;52.742;16.962;2023-04-24T05:33:59;22.30;;;15.40;;
73678;SDS011;61978;52.742;16.962;2023-04-24T05:36:25;16.20;;;13.50;;
73678;SDS011;61978;52.742;16.962;2023-04-24T05:38:52;18.40;;;13.10;;
73678;SDS011;61978;52.742;16.962;2023-04-24T05:41:19;15.50;;;12.00;;
73678;SDS011;61978;52.742;16.962;2023-04-24T05:43:45;26.80;;;13.80;;
73678;SDS011;61978;52.742;16.962;2023-04-24T05:46:11;15.90;;;13.70;;
73678;SDS011;61978;52.742;16.962;2023-04-24T05:48:38;14.00;;;12.20;;
73678;SDS011;61978;52.742;16.962;2023-04-24T05:51:03;18.70;;;12.90;;
73678;SDS011;61978;52.742;16.962;2023-04-24T05:53:29;14.90;;;12.40;;
73678;SDS011;61978;52.742;16.962;2023-04-24T05:55:55;14.90;;;11.20;;
73678;SDS011;61978;52.742;16.962;2023-04-24T05:58:21;15.20;;;11.40;;
73678;SDS011;61978;52.742;16.962;2023-04-24T06:00:47;13.90;;;10.80;;
73678;SDS011;61978;52.742;16.962;2023-04-24T06:03:13;11.70;;;10.10;;
73678;SDS011;61978;52.742;16.962;2023-04-24T06:05:39;12.60;;;10.50;;
73678;SDS011;61978;52.742;16.962;2023-04-24T06:08:05;12.70;;;9.70;;
73678;SDS011;61978;52.742;16.962;2023-04-24T06:10:34;12.10;;;10.70;;
73678;SDS011;61978;52.742;16.962;2023-04-24T06:13:00;13.40;;;10.80;;
73678;SDS011;61978;52.742;16.962;2023-04-24T06:15:29;11.90;;;9.00;;
73678;SDS011;61978;52.742;16.962;2023-04-24T06:18:09;11.10;;;8.00;;
73678;SDS011;61978;52.742;16.962;2023-04-24T06:20:36;12.60;;;8.00;;
73678;SDS011;61978;52.742;16.962;2023-04-24T06:23:01;11.10;;;8.20;;
73678;SDS011;61978;52.742;16.962;2023-04-24T06:25:27;13.60;;;7.30;;
73678;SDS011;61978;52.742;16.962;2023-04-24T06:27:54;11.80;;;8.80;;
73678;SDS011;61978;52.742;16.962;2023-04-24T06:30:20;13.20;;;7.90;;
73678;SDS011;61978;52.742;16.962;2023-04-24T06:32:46;12.30;;;8.10;;
73678;SDS011;61978;52.742;16.962;2023-04-24T06:35:14;10.70;;;8.10;;
73678;SDS011;61978;52.742;16.962;2023-04-24T06:37:40;11.10;;;8.60;;
73678;SDS011;61978;52.742;16.962;2023-04-24T06:40:06;9.10;;;7.80;;
73678;SDS011;61978;52.742;16.962;2023-04-24T06:42:32;10.70;;;8.30;;
73678;SDS011;61978;52.742;16.962;2023-04-24T06:44:58;10.90;;;8.80;;
73678;SDS011;61978;52.742;16.962;2023-04-24T06:47:23;12.70;;;8.50;;
73678;SDS011;61978;52.742;16.962;2023-04-24T06:49:49;11.90;;;8.40;;
73678;SDS011;61978;52.742;16.962;2023-04-24T06:52:17;12.70;;;9.10;;
73678;SDS011;61978;52.742;16.962;2023-04-24T06:54:43;10.80;;;9.00;;
73678;SDS011;61978;52.742;16.962;2023-04-24T06:57:09;10.40;;;9.00;;
73678;SDS011;61978;52.742;16.962;2023-04-24T06:59:35;11.60;;;9.00;;
73678;SDS011;61978;52.742;16.962;2023-04-24T07:02:01;11.10;;;8.20;;
73678;SDS011;61978;52.742;16.962;2023-04-24T07:04:26;13.20;;;9.70;;
73678;SDS011;61978;52.742;16.962;2023-04-24T07:06:53;11.40;;;9.70;;
73678;SDS011;61978;52.742;16.962;2023-04-24T07:09:23;10.90;;;8.80;;
73678;SDS011;61978;52.742;16.962;2023-04-24T07:11:49;12.60;;;9.50;;
73678;SDS011;61978;52.742;16.962;2023-04-24T07:14:15;14.50;;;9.40;;
73678;SDS011;61978;52.742;16.962;2023-04-24T07:16:41;12.20;;;10.10;;
73678;SDS011;61978;52.742;16.962;2023-04-24T07:19:07;14.50;;;10.30;;
73678;SDS011;61978;52.742;16.962;2023-04-24T07:21:32;13.80;;;10.10;;
73678;SDS011;61978;52.742;16.962;2023-04-24T07:23:58;13.40;;;9.60;;
73678;SDS011;61978;52.742;16.962;2023-04-24T07:26:24;9.70;;;8.60;;
73678;SDS011;61978;52.742;16.962;2023-04-24T07:28:50;14.00;;;10.10;;
73678;SDS011;61978;52.742;16.962;2023-04-24T07:31:16;13.80;;;9.80;;
73678;SDS011;61978;52.742;16.962;2023-04-24T07:33:41;11.60;;;9.30;;
73678;SDS011;61978;52.742;16.962;2023-04-24T07:36:07;13.00;;;9.10;;
73678;SDS011;61978;52.742;16.962;2023-04-24T07:38:33;11.50;;;9.40;;
73678;SDS011;61978;52.742;16.962;2023-04-24T07:40:58;15.70;;;10.00;;
73678;SDS011;61978;52.742;16.962;2023-04-24T07:43:24;14.50;;;10.30;;
73678;SDS011;61978;52.742;16.962;2023-04-24T07:45:50;13.40;;;11.10;;
73678;SDS011;61978;52.742;16.962;2023-04-24T07:48:16;12.70;;;10.30;;
73678;SDS011;61978;52.742;16.962;2023-04-24T07:50:43;14.60;;;9.80;;
73678;SDS011;61978;52.742;16.962;2023-04-24T07:53:09;19.70;;;11.30;;
73678;SDS011;61978;52.742;16.962;2023-04-24T07:55:35;17.20;;;11.00;;
73678;SDS011;61978;52.742;16.962;2023-04-24T07:58:00;13.80;;;11.70;;
73678;SDS011;61978;52.742;16.962;2023-04-24T08:00:26;16.60;;;11.10;;
73678;SDS011;61978;52.742;16.962;2023-04-24T08:02:52;16.30;;;11.30;;
73678;SDS011;61978;52.742;16.962;2023-04-24T08:05:17;14.80;;;11.40;;
73678;SDS011;61978;52.742;16.962;2023-04-24T08:07:45;16.50;;;11.60;;
73678;SDS011;61978;52.742;16.962;2023-04-24T08:10:14;14.60;;;10.60;;
73678;SDS011;61978;52.742;16.962;2023-04-24T08:12:40;12.20;;;10.80;;
73678;SDS011;61978;52.742;16.962;2023-04-24T08:15:06;13.90;;;10.20;;
73678;SDS011;61978;52.742;16.962;2023-04-24T08:17:33;14.40;;;11.60;;
73678;SDS011;61978;52.742;16.962;2023-04-24T08:19:59;18.10;;;11.40;;
73678;SDS011;61978;52.742;16.962;2023-04-24T08:22:27;15.90;;;11.10;;
73678;SDS011;61978;52.742;16.962;2023-04-24T08:24:53;15.90;;;12.30;;
73678;SDS011;61978;52.742;16.962;2023-04-24T08:27:18;14.10;;;12.10;;
73678;SDS011;61978;52.742;16.962;2023-04-24T08:29:44;15.80;;;12.50;;
73678;SDS011;61978;52.742;16.962;2023-04-24T08:32:10;17.40;;;14.40;;
73678;SDS011;61978;52.742;16.962;2023-04-24T08:34:35;18.00;;;13.30;;
73678;SDS011;61978;52.742;16.962;2023-04-24T08:37:02;15.90;;;14.30;;
73678;SDS011;61978;52.742;16.962;2023-04-24T08:39:28;15.30;;;12.80;;
73678;SDS011;61978;52.742;16.962;2023-04-24T08:41:54;13.60;;;12.10;;
73678;SDS011;61978;52.742;16.962;2023-04-24T08:44:20;15.00;;;11.40;;
73678;SDS011;61978;52.742;16.962;2023-04-24T08:46:47;13.60;;;10.50;;
73678;SDS011;61978;52.742;16.962;2023-04-24T08:49:13;12.80;;;10.60;;
73678;SDS011;61978;52.742;16.962;2023-04-24T08:51:41;12.50;;;10.50;;
73678;SDS011;61978;52.742;16.962;2023-04-24T08:54:08;14.30;;;9.20;;
73678;SDS011;61978;52.742;16.962;2023-04-24T08:56:34;12.30;;;10.60;;
73678;SDS011;61978;52.742;16.962;2023-04-24T08:59:05;11.80;;;10.50;;
73678;SDS011;61978;52.742;16.962;2023-04-24T09:01:31;13.00;;;10.70;;
73678;SDS011;61978;52.742;16.962;2023-04-24T09:03:57;14.50;;;11.10;;
73678;SDS011;61978;52.742;16.962;2023-04-24T09:06:23;13.70;;;10.70;;
73678;SDS011;61978;52.742;16.962;2023-04-24T09:08:49;13.80;;;11.40;;
73678;SDS011;61978;52.742;16.962;2023-04-24T09:11:16;15.40;;;12.40;;
73678;SDS011;61978;52.742;16.962;2023-04-24T09:13:42;14.70;;;12.80;;
73678;SDS011;61978;52.742;16.962;2023-04-24T09:16:08;15.20;;;12.00;;
73678;SDS011;61978;52.742;16.962;2023-04-24T09:18:34;12.90;;;11.60;;
73678;SDS011;61978;52.742;16.962;2023-04-24T09:21:01;14.50;;;12.40;;
73678;SDS011;61978;52.742;16.962;2023-04-24T09:23:28;12.20;;;10.70;;
73678;SDS011;61978;52.742;16.962;2023-04-24T09:25:55;13.70;;;11.10;;
73678;SDS011;61978;52.742;16.962;2023-04-24T09:28:31;14.60;;;12.20;;
73678;SDS011;61978;52.742;16.962;2023-04-24T09:31:08;13.20;;;11.10;;
73678;SDS011;61978;52.742;16.962;2023-04-24T09:33:37;16.30;;;12.40;;
73678;SDS011;61978;52.742;16.962;2023-04-24T09:36:02;16.60;;;11.70;;
73678;SDS011;61978;52.742;16.962;2023-04-24T09:38:37;15.60;;;11.10;;
73678;SDS011;61978;52.742;16.962;2023-04-24T09:41:07;13.80;;;12.40;;
73678;SDS011;61978;52.742;16.962;2023-04-24T09:43:33;14.70;;;12.00;;
73678;SDS011;61978;52.742;16.962;2023-04-24T09:45:59;14.20;;;11.20;;
73678;SDS011;61978;52.742;16.962;2023-04-24T09:48:35;13.70;;;11.40;;
73678;SDS011;61978;52.742;16.962;2023-04-24T09:51:01;13.70;;;11.30;;
73678;SDS011;61978;52.742;16.962;2023-04-24T09:53:27;13.80;;;12.40;;
73678;SDS011;61978;52.742;16.962;2023-04-24T09:55:53;14.40;;;11.80;;
73678;SDS011;61978;52.742;16.962;2023-04-24T09:58:24;14.90;;;11.80;;
73678;SDS011;61978;52.742;16.962;2023-04-24T10:00:53;15.10;;;11.80;;
73678;SDS011;61978;52.742;16.962;2023-04-24T10:03:18;13.80;;;11.70;;
73678;SDS011;61978;52.742;16.962;2023-04-24T10:05:44;13.20;;;10.60;;
73678;SDS011;61978;52.742;16.962;2023-04-24T10:08:11;18.30;;;12.80;;
73678;SDS011;61978;52.742;16.962;2023-04-24T10:10:42;13.00;;;11.30;;
73678;SDS011;61978;52.742;16.962;2023-04-24T10:13:09;14.10;;;11.70;;
73678;SDS011;61978;52.742;16.962;2023-04-24T10:15:36;16.40;;;13.00;;
73678;SDS011;61978;52.742;16.962;2023-04-24T10:18:01;19.50;;;12.30;;
73678;SDS011;61978;52.742;16.962;2023-04-24T10:20:29;16.20;;;11.60;;
73678;SDS011;61978;52.742;16.962;2023-04-24T10:22:56;12.70;;;11.40;;
73678;SDS011;61978;52.742;16.962;2023-04-24T10:25:29;12.30;;;10.20;;
73678;SDS011;61978;52.742;16.962;2023-04-24T10:27:55;13.90;;;9.60;;
73678;SDS011;61978;52.742;16.962;2023-04-24T10:30:28;12.20;;;10.40;;
73678;SDS011;61978;52.742;16.962;2023-04-24T10:32:54;12.80;;;11.10;;
73678;SDS011;61978;52.742;16.962;2023-04-24T10:35:20;12.90;;;10.40;;
73678;SDS011;61978;52.742;16.962;2023-04-24T10:37:56;16.00;;;9.80;;
73678;SDS011;61978;52.742;16.962;2023-04-24T10:40:26;11.10;;;9.80;;
73678;SDS011;61978;52.742;16.962;2023-04-24T10:42:52;12.40;;;9.30;;
73678;SDS011;61978;52.742;16.962;2023-04-24T10:45:21;11.80;;;9.70;;
73678;SDS011;61978;52.742;16.962;2023-04-24T10:47:56;11.90;;;10.00;;
73678;SDS011;61978;52.742;16.962;2023-04-24T10:50:22;11.20;;;9.00;;
73678;SDS011;61978;52.742;16.962;2023-04-24T10:52:48;11.40;;;10.30;;
73678;SDS011;61978;52.742;16.962;2023-04-24T10:55:15;12.80;;;10.70;;
73678;SDS011;61978;52.742;16.962;2023-04-24T10:58:02;11.90;;;10.10;;
73678;SDS011;61978;52.742;16.962;2023-04-24T11:00:28;11.00;;;9.20;;
73678;SDS011;61978;52.742;16.962;2023-04-24T11:02:53;15.00;;;10.20;;
73678;SDS011;61978;52.742;16.962;2023-04-24T11:05:20;12.30;;;10.60;;
73678;SDS011;61978;52.742;16.962;2023-04-24T11:10:31;14.00;;;10.70;;
73678;SDS011;61978;52.742;16.962;2023-04-24T11:12:56;10.90;;;9.90;;
73678;SDS011;61978;52.742;16.962;2023-04-24T11:15:22;11.20;;;10.10;;
73678;SDS011;61978;52.742;16.962;2023-04-24T11:17:48;12.00;;;10.60;;
73678;SDS011;61978;52.742;16.962;2023-04-24T11:20:16;11.20;;;10.20;;
73678;SDS011;61978;52.742;16.962;2023-04-24T11:22:43;12.00;;;10.80;;
73678;SDS011;61978;52.742;16.962;2023-04-24T11:25:09;10.80;;;9.60;;
73678;SDS011;61978;52.742;16.962;2023-04-24T11:27:41;14.70;;;10.40;;
73678;SDS011;61978;52.742;16.962;2023-04-24T11:30:08;12.70;;;11.40;;
73678;SDS011;61978;52.742;16.962;2023-04-24T11:35:00;11.30;;;10.10;;
73678;SDS011;61978;52.742;16.962;2023-04-24T11:37:37;13.10;;;10.60;;
73678;SDS011;61978;52.742;16.962;2023-04-24T11:40:03;14.70;;;10.20;;
73678;SDS011;61978;52.742;16.962;2023-04-24T11:42:51;11.20;;;10.00;;
73678;SDS011;61978;52.742;16.962;2023-04-24T11:45:17;12.10;;;10.20;;
73678;SDS011;61978;52.742;16.962;2023-04-24T11:47:44;12.50;;;11.30;;
73678;SDS011;61978;52.742;16.962;2023-04-24T11:50:13;12.20;;;9.50;;
73678;SDS011;61978;52.742;16.962;2023-04-24T11:52:41;13.70;;;10.80;;
73678;SDS011;61978;52.742;16.962;2023-04-24T12:00:17;9.00;;;7.90;;
73678;SDS011;61978;52.742;16.962;2023-04-24T12:02:43;5.90;;;5.30;;
73678;SDS011;61978;52.742;16.962;2023-04-24T12:05:09;8.20;;;5.30;;
73678;SDS011;61978;52.742;16.962;2023-04-24T12:07:44;5.50;;;4.70;;
73678;SDS011;61978;52.742;16.962;2023-04-24T12:10:10;7.90;;;4.30;;
73678;SDS011;61978;52.742;16.962;2023-04-24T12:12:36;6.10;;;4.20;;
73678;SDS011;61978;52.742;16.962;2023-04-24T12:15:01;4.60;;;3.90;;
73678;SDS011;61978;52.742;16.962;2023-04-24T12:17:32;3.80;;;3.50;;
73678;SDS011;61978;52.742;16.962;2023-04-24T12:19:59;4.20;;;3.60;;
73678;SDS011;61978;52.742;16.962;2023-04-24T12:22:25;4.50;;;4.10;;
73678;SDS011;61978;52.742;16.962;2023-04-24T12:25:01;6.60;;;3.90;;
73678;SDS011;61978;52.742;16.962;2023-04-24T12:27:29;3.50;;;3.20;;
73678;SDS011;61978;52.742;16.962;2023-04-24T12:29:56;3.30;;;3.00;;
73678;SDS011;61978;52.742;16.962;2023-04-24T12:32:23;2.60;;;2.40;;
73678;SDS011;61978;52.742;16.962;2023-04-24T12:34:50;3.40;;;2.40;;
73678;SDS011;61978;52.742;16.962;2023-04-24T12:37:17;4.50;;;2.10;;
73678;SDS011;61978;52.742;16.962;2023-04-24T12:42:28;2.90;;;2.50;;
73678;SDS011;61978;52.742;16.962;2023-04-24T12:44:56;3.90;;;1.50;;
73678;SDS011;61978;52.742;16.962;2023-04-24T12:47:23;2.20;;;2.00;;
73678;SDS011;61978;52.742;16.962;2023-04-24T12:49:49;2.00;;;1.90;;
73678;SDS011;61978;52.742;16.962;2023-04-24T12:52:18;2.00;;;1.80;;
73678;SDS011;61978;52.742;16.962;2023-04-24T12:54:47;2.60;;;1.60;;
73678;SDS011;61978;52.742;16.962;2023-04-24T12:57:17;2.10;;;1.90;;
73678;SDS011;61978;52.742;16.962;2023-04-24T12:59:43;2.30;;;1.50;;
73678;SDS011;61978;52.742;16.962;2023-04-24T13:02:09;2.20;;;1.70;;
73678;SDS011;61978;52.742;16.962;2023-04-24T13:04:36;2.00;;;1.70;;
73678;SDS011;61978;52.742;16.962;2023-04-24T13:07:01;2.20;;;1.50;;
73678;SDS011;61978;52.742;16.962;2023-04-24T13:09:27;4.80;;;1.60;;
73678;SDS011;61978;52.742;16.962;2023-04-24T13:11:52;3.10;;;1.30;;
73678;SDS011;61978;52.742;16.962;2023-04-24T13:14:18;1.90;;;1.60;;
73678;SDS011;61978;52.742;16.962;2023-04-24T13:16:45;3.80;;;1.60;;
73678;SDS011;61978;52.742;16.962;2023-04-24T13:19:11;3.40;;;1.70;;
73678;SDS011;61978;52.742;16.962;2023-04-24T13:21:37;3.10;;;1.80;;
73678;SDS011;61978;52.742;16.962;2023-04-24T13:24:02;4.40;;;1.50;;
73678;SDS011;61978;52.742;16.962;2023-04-24T13:26:30;8.70;;;2.50;;
73678;SDS011;61978;52.742;16.962;2023-04-24T13:28:56;7.20;;;2.30;;
73678;SDS011;61978;52.742;16.962;2023-04-24T13:31:21;7.40;;;2.60;;
73678;SDS011;61978;52.742;16.962;2023-04-24T13:33:47;3.50;;;1.90;;
73678;SDS011;61978;52.742;16.962;2023-04-24T13:36:13;2.20;;;1.60;;
73678;SDS011;61978;52.742;16.962;2023-04-24T13:38:39;5.90;;;1.90;;
73678;SDS011;61978;52.742;16.962;2023-04-24T13:41:05;2.10;;;1.80;;
73678;SDS011;61978;52.742;16.962;2023-04-24T13:43:30;2.50;;;1.40;;
73678;SDS011;61978;52.742;16.962;2023-04-24T13:45:56;2.20;;;1.20;;
73678;SDS011;61978;52.742;16.962;2023-04-24T13:48:21;3.40;;;1.50;;
73678;SDS011;61978;52.742;16.962;2023-04-24T13:50:47;1.60;;;1.30;;
73678;SDS011;61978;52.742;16.962;2023-04-24T13:53:15;2.60;;;1.80;;
73678;SDS011;61978;52.742;16.962;2023-04-24T13:55:41;1.80;;;1.50;;
73678;SDS011;61978;52.742;16.962;2023-04-24T13:58:07;1.90;;;1.50;;
73678;SDS011;61978;52.742;16.962;2023-04-24T14:00:32;1.70;;;1.00;;
73678;SDS011;61978;52.742;16.962;2023-04-24T14:02:58;6.40;;;1.50;;
73678;SDS011;61978;52.742;16.962;2023-04-24T14:05:24;1.40;;;0.80;;
73678;SDS011;61978;52.742;16.962;2023-04-24T14:07:50;3.00;;;0.90;;
73678;SDS011;61978;52.742;16.962;2023-04-24T14:10:16;3.30;;;1.00;;
73678;SDS011;61978;52.742;16.962;2023-04-24T14:12:42;1.70;;;0.70;;
73678;SDS011;61978;52.742;16.962;2023-04-24T14:15:07;1.80;;;0.70;;
73678;SDS011;61978;52.742;16.962;2023-04-24T14:17:34;3.50;;;0.80;;
73678;SDS011;61978;52.742;16.962;2023-04-24T14:20:00;4.10;;;0.60;;
73678;SDS011;61978;52.742;16.962;2023-04-24T14:22:29;1.50;;;0.70;;
73678;SDS011;61978;52.742;16.962;2023-04-24T14:24:55;2.20;;;1.90;;
73678;SDS011;61978;52.742;16.962;2023-04-24T14:27:20;3.00;;;2.10;;
73678;SDS011;61978;52.742;16.962;2023-04-24T14:29:46;0.80;;;0.70;;
73678;SDS011;61978;52.742;16.962;2023-04-24T14:32:12;1.00;;;0.80;;